sensor_id;sensor_type;location;lat;lon;timestamp;temperature;humidity
17053;DHT22;8643;48.824;11.422;2023-04-06T00:00:49;0.10;99.90
17053;DHT22;8643;48.824;11.422;2023-04-06T00:03:18;-0.50;99.90
17053;DHT22;8643;48.824;11.422;2023-04-06T00:05:48;-0.60;99.90
17053;DHT22;8643;48.824;11.422;2023-04-06T00:08:16;-0.60;99.90
17053;DHT22;8643;48.824;11.422;2023-04-06T00:10:45;-0.60;99.90
17053;DHT22;8643;48.824;11.422;2023-04-06T00:13:13;-0.70;99.90
17053;DHT22;8643;48.824;11.422;2023-04-06T00:15:41;-0.70;99.90
17053;DHT22;8643;48.824;11.422;2023-04-06T00:18:11;-0.60;99.90
17053;DHT22;8643;48.824;11.422;2023-04-06T00:20:40;-0.80;99.90
17053;DHT22;8643;48.824;11.422;2023-04-06T00:23:08;-0.80;99.90
17053;DHT22;8643;48.824;11.422;2023-04-06T00:25:37;-0.80;99.90
17053;DHT22;8643;48.824;11.422;2023-04-06T00:28:05;-0.90;99.90
17053;DHT22;8643;48.824;11.422;2023-04-06T00:30:33;-1.00;99.90
17053;DHT22;8643;48.824;11.422;2023-04-06T00:33:02;-1.10;99.90
17053;DHT22;8643;48.824;11.422;2023-04-06T00:35:32;-1.10;99.90
17053;DHT22;8643;48.824;11.422;2023-04-06T00:38:00;-1.20;99.90
17053;DHT22;8643;48.824;11.422;2023-04-06T00:40:29;-1.20;99.90
17053;DHT22;8643;48.824;11.422;2023-04-06T00:42:58;-1.30;99.90
17053;DHT22;8643;48.824;11.422;2023-04-06T00:45:27;-0.80;99.90
17053;DHT22;8643;48.824;11.422;2023-04-06T00:50:25;-2.00;99.90
17053;DHT22;8643;48.824;11.422;2023-04-06T00:55:26;-1.30;99.90
17053;DHT22;8643;48.824;11.422;2023-04-06T00:57:58;-1.20;99.90
17053;DHT22;8643;48.824;11.422;2023-04-06T01:00:31;-1.30;99.90
17053;DHT22;8643;48.824;11.422;2023-04-06T01:03:01;-1.20;99.90
17053;DHT22;8643;48.824;11.422;2023-04-06T01:05:38;-1.30;99.90
17053;DHT22;8643;48.824;11.422;2023-04-06T01:08:17;-1.40;99.90
17053;DHT22;8643;48.824;11.422;2023-04-06T01:10:46;-1.60;99.90
17053;DHT22;8643;48.824;11.422;2023-04-06T01:13:26;-0.50;99.90
17053;DHT22;8643;48.824;11.422;2023-04-06T01:15:59;-1.50;99.90
17053;DHT22;8643;48.824;11.422;2023-04-06T01:18:45;-1.60;99.90
17053;DHT22;8643;48.824;11.422;2023-04-06T01:21:27;-1.60;99.90
17053;DHT22;8643;48.824;11.422;2023-04-06T01:24:13;-1.60;99.90
17053;DHT22;8643;48.824;11.422;2023-04-06T01:26:55;-1.70;99.90
17053;DHT22;8643;48.824;11.422;2023-04-06T01:31:58;-1.70;99.90
17053;DHT22;8643;48.824;11.422;2023-04-06T01:37:01;-1.70;99.90
17053;DHT22;8643;48.824;11.422;2023-04-06T01:39:32;-1.70;99.90
17053;DHT22;8643;48.824;11.422;2023-04-06T01:42:03;-1.70;99.90
17053;DHT22;8643;48.824;11.422;2023-04-06T01:47:09;-1.70;99.90
17053;DHT22;8643;48.824;11.422;2023-04-06T01:49:37;-1.90;99.90
17053;DHT22;8643;48.824;11.422;2023-04-06T01:52:07;-1.70;99.90
17053;DHT22;8643;48.824;11.422;2023-04-06T01:54:40;-1.70;99.90
17053;DHT22;8643;48.824;11.422;2023-04-06T01:57:13;-1.80;99.90
17053;DHT22;8643;48.824;11.422;2023-04-06T02:00:06;-1.80;99.90
17053;DHT22;8643;48.824;11.422;2023-04-06T02:02:47;-1.80;99.90
17053;DHT22;8643;48.824;11.422;2023-04-06T02:05:21;-1.80;99.90
17053;DHT22;8643;48.824;11.422;2023-04-06T02:07:51;-1.80;99.90
17053;DHT22;8643;48.824;11.422;2023-04-06T02:10:29;-1.90;99.90
17053;DHT22;8643;48.824;11.422;2023-04-06T02:13:01;-2.00;99.90
17053;DHT22;8643;48.824;11.422;2023-04-06T02:15:30;-2.00;99.90
17053;DHT22;8643;48.824;11.422;2023-04-06T02:17:59;-1.70;99.90
17053;DHT22;8643;48.824;11.422;2023-04-06T02:20:28;-2.00;99.90
17053;DHT22;8643;48.824;11.422;2023-04-06T02:22:58;-2.00;99.90
17053;DHT22;8643;48.824;11.422;2023-04-06T02:25:26;-2.00;99.90
17053;DHT22;8643;48.824;11.422;2023-04-06T02:27:57;-1.40;99.90
17053;DHT22;8643;48.824;11.422;2023-04-06T02:33:00;-2.00;99.90
17053;DHT22;8643;48.824;11.422;2023-04-06T02:40:32;-1.90;99.90
17053;DHT22;8643;48.824;11.422;2023-04-06T02:43:12;-2.00;99.90
17053;DHT22;8643;48.824;11.422;2023-04-06T02:45:41;-2.00;99.90
17053;DHT22;8643;48.824;11.422;2023-04-06T02:48:10;-2.10;99.90
17053;DHT22;8643;48.824;11.422;2023-04-06T02:53:08;-2.10;99.90
17053;DHT22;8643;48.824;11.422;2023-04-06T02:55:38;-2.10;99.90
17053;DHT22;8643;48.824;11.422;2023-04-06T02:58:06;-2.10;99.90
17053;DHT22;8643;48.824;11.422;2023-04-06T03:00:47;-2.10;99.90
17053;DHT22;8643;48.824;11.422;2023-04-06T03:03:15;-1.80;99.90
17053;DHT22;8643;48.824;11.422;2023-04-06T03:05:45;-2.10;99.90
17053;DHT22;8643;48.824;11.422;2023-04-06T03:08:17;-2.10;99.90
17053;DHT22;8643;48.824;11.422;2023-04-06T03:10:45;-2.20;99.90
17053;DHT22;8643;48.824;11.422;2023-04-06T03:13:16;-2.10;99.90
17053;DHT22;8643;48.824;11.422;2023-04-06T03:15:49;-2.10;99.90
17053;DHT22;8643;48.824;11.422;2023-04-06T03:18:22;-1.70;99.90
17053;DHT22;8643;48.824;11.422;2023-04-06T03:20:52;-2.20;99.90
17053;DHT22;8643;48.824;11.422;2023-04-06T03:23:27;-2.20;99.90
17053;DHT22;8643;48.824;11.422;2023-04-06T03:25:58;-2.30;99.90
17053;DHT22;8643;48.824;11.422;2023-04-06T03:28:27;-2.40;99.90
17053;DHT22;8643;48.824;11.422;2023-04-06T03:31:00;-2.50;99.90
17053;DHT22;8643;48.824;11.422;2023-04-06T03:33:47;-2.60;99.90
17053;DHT22;8643;48.824;11.422;2023-04-06T03:36:21;-2.60;99.90
17053;DHT22;8643;48.824;11.422;2023-04-06T03:41:20;-2.70;99.90
17053;DHT22;8643;48.824;11.422;2023-04-06T03:43:59;-2.90;99.90
17053;DHT22;8643;48.824;11.422;2023-04-06T03:46:29;-2.80;99.90
17053;DHT22;8643;48.824;11.422;2023-04-06T03:53:56;-2.70;99.90
17053;DHT22;8643;48.824;11.422;2023-04-06T03:56:25;-2.80;99.90
17053;DHT22;8643;48.824;11.422;2023-04-06T03:58:53;-2.80;99.90
17053;DHT22;8643;48.824;11.422;2023-04-06T04:01:22;-2.80;99.90
17053;DHT22;8643;48.824;11.422;2023-04-06T04:03:52;-5.80;99.90
17053;DHT22;8643;48.824;11.422;2023-04-06T04:06:21;-2.80;99.90
17053;DHT22;8643;48.824;11.422;2023-04-06T04:08:50;-2.80;99.90
17053;DHT22;8643;48.824;11.422;2023-04-06T04:11:18;-2.90;99.90
17053;DHT22;8643;48.824;11.422;2023-04-06T04:13:52;-2.70;99.90
17053;DHT22;8643;48.824;11.422;2023-04-06T04:16:21;-2.80;99.90
17053;DHT22;8643;48.824;11.422;2023-04-06T04:18:52;-2.90;99.90
17053;DHT22;8643;48.824;11.422;2023-04-06T04:21:22;-2.90;99.90
17053;DHT22;8643;48.824;11.422;2023-04-06T04:23:53;-2.50;99.90
17053;DHT22;8643;48.824;11.422;2023-04-06T04:26:21;-3.10;99.90
17053;DHT22;8643;48.824;11.422;2023-04-06T04:28:49;-3.20;99.90
17053;DHT22;8643;48.824;11.422;2023-04-06T04:31:18;-3.30;99.90
17053;DHT22;8643;48.824;11.422;2023-04-06T04:33:55;-3.30;99.90
17053;DHT22;8643;48.824;11.422;2023-04-06T04:39:01;-3.20;99.90
17053;DHT22;8643;48.824;11.422;2023-04-06T04:41:35;-3.10;99.90
17053;DHT22;8643;48.824;11.422;2023-04-06T04:44:07;-3.10;99.90
17053;DHT22;8643;48.824;11.422;2023-04-06T04:46:36;-3.10;99.90
17053;DHT22;8643;48.824;11.422;2023-04-06T04:49:07;-3.10;99.90
17053;DHT22;8643;48.824;11.422;2023-04-06T04:51:36;-3.10;99.90
17053;DHT22;8643;48.824;11.422;2023-04-06T04:54:11;-3.10;99.90
17053;DHT22;8643;48.824;11.422;2023-04-06T04:56:41;-3.20;99.90
17053;DHT22;8643;48.824;11.422;2023-04-06T04:59:20;-3.20;99.90
17053;DHT22;8643;48.824;11.422;2023-04-06T05:01:55;-3.30;99.90
17053;DHT22;8643;48.824;11.422;2023-04-06T05:04:38;-3.20;99.90
17053;DHT22;8643;48.824;11.422;2023-04-06T05:07:11;-3.30;99.90
17053;DHT22;8643;48.824;11.422;2023-04-06T05:09:40;-3.20;99.90
17053;DHT22;8643;48.824;11.422;2023-04-06T05:12:10;-3.20;99.90
17053;DHT22;8643;48.824;11.422;2023-04-06T05:14:49;-3.10;99.90
17053;DHT22;8643;48.824;11.422;2023-04-06T05:17:19;-3.00;99.90
17053;DHT22;8643;48.824;11.422;2023-04-06T05:19:50;-3.00;99.90
17053;DHT22;8643;48.824;11.422;2023-04-06T05:22:23;-2.90;99.90
17053;DHT22;8643;48.824;11.422;2023-04-06T05:25:06;-2.90;99.90
17053;DHT22;8643;48.824;11.422;2023-04-06T05:27:37;-2.80;99.90
17053;DHT22;8643;48.824;11.422;2023-04-06T05:30:16;-2.70;99.90
17053;DHT22;8643;48.824;11.422;2023-04-06T05:32:47;-2.70;99.90
17053;DHT22;8643;48.824;11.422;2023-04-06T05:35:18;-2.60;99.90
17053;DHT22;8643;48.824;11.422;2023-04-06T05:37:50;-2.50;99.90
17053;DHT22;8643;48.824;11.422;2023-04-06T05:40:23;-2.40;99.90
17053;DHT22;8643;48.824;11.422;2023-04-06T05:42:52;-2.30;99.90
17053;DHT22;8643;48.824;11.422;2023-04-06T05:45:20;-2.10;99.90
17053;DHT22;8643;48.824;11.422;2023-04-06T05:47:54;-1.90;99.90
17053;DHT22;8643;48.824;11.422;2023-04-06T05:50:27;-1.70;99.90
17053;DHT22;8643;48.824;11.422;2023-04-06T05:52:57;-1.50;99.90
17053;DHT22;8643;48.824;11.422;2023-04-06T05:55:30;-1.20;99.90
17053;DHT22;8643;48.824;11.422;2023-04-06T05:58:16;-0.80;99.90
17053;DHT22;8643;48.824;11.422;2023-04-06T06:00:46;-0.50;99.90
17053;DHT22;8643;48.824;11.422;2023-04-06T06:03:16;-0.10;99.90
17053;DHT22;8643;48.824;11.422;2023-04-06T06:05:52;0.10;99.90
17053;DHT22;8643;48.824;11.422;2023-04-06T06:08:28;0.40;99.90
17053;DHT22;8643;48.824;11.422;2023-04-06T06:11:02;0.70;99.90
17053;DHT22;8643;48.824;11.422;2023-04-06T06:13:30;1.00;99.90
17053;DHT22;8643;48.824;11.422;2023-04-06T06:16:00;1.30;99.90
17053;DHT22;8643;48.824;11.422;2023-04-06T06:18:34;1.60;99.90
17053;DHT22;8643;48.824;11.422;2023-04-06T06:21:05;2.00;99.90
17053;DHT22;8643;48.824;11.422;2023-04-06T06:23:34;2.20;99.90
17053;DHT22;8643;48.824;11.422;2023-04-06T06:26:03;2.30;99.90
17053;DHT22;8643;48.824;11.422;2023-04-06T06:28:32;2.70;99.90
17053;DHT22;8643;48.824;11.422;2023-04-06T06:31:00;2.90;99.90
17053;DHT22;8643;48.824;11.422;2023-04-06T06:33:29;3.10;99.90
17053;DHT22;8643;48.824;11.422;2023-04-06T06:35:58;3.40;99.90
17053;DHT22;8643;48.824;11.422;2023-04-06T06:38:30;3.50;99.90
17053;DHT22;8643;48.824;11.422;2023-04-06T06:40:59;3.80;99.90
17053;DHT22;8643;48.824;11.422;2023-04-06T06:43:30;4.00;99.90
17053;DHT22;8643;48.824;11.422;2023-04-06T06:46:03;4.00;99.90
17053;DHT22;8643;48.824;11.422;2023-04-06T06:48:33;4.20;99.90
17053;DHT22;8643;48.824;11.422;2023-04-06T06:51:01;4.30;99.90
17053;DHT22;8643;48.824;11.422;2023-04-06T06:53:31;4.40;99.90
17053;DHT22;8643;48.824;11.422;2023-04-06T06:56:00;4.50;99.90
17053;DHT22;8643;48.824;11.422;2023-04-06T06:58:29;4.60;99.90
17053;DHT22;8643;48.824;11.422;2023-04-06T07:00:59;4.70;99.90
17053;DHT22;8643;48.824;11.422;2023-04-06T07:03:30;5.50;99.90
17053;DHT22;8643;48.824;11.422;2023-04-06T07:05:59;4.80;99.90
17053;DHT22;8643;48.824;11.422;2023-04-06T07:08:27;5.10;99.90
17053;DHT22;8643;48.824;11.422;2023-04-06T07:10:57;5.40;99.90
17053;DHT22;8643;48.824;11.422;2023-04-06T07:15:57;5.60;99.90
17053;DHT22;8643;48.824;11.422;2023-04-06T07:18:25;5.70;99.90
17053;DHT22;8643;48.824;11.422;2023-04-06T07:20:54;5.90;99.90
17053;DHT22;8643;48.824;11.422;2023-04-06T07:23:24;6.30;99.90
17053;DHT22;8643;48.824;11.422;2023-04-06T07:25:53;6.60;99.90
17053;DHT22;8643;48.824;11.422;2023-04-06T07:28:22;6.70;97.80
17053;DHT22;8643;48.824;11.422;2023-04-06T07:30:51;6.80;96.70
17053;DHT22;8643;48.824;11.422;2023-04-06T07:33:21;6.90;96.00
17053;DHT22;8643;48.824;11.422;2023-04-06T07:35:50;7.20;95.90
17053;DHT22;8643;48.824;11.422;2023-04-06T07:38:19;7.30;94.50
17053;DHT22;8643;48.824;11.422;2023-04-06T07:40:48;7.30;92.00
17053;DHT22;8643;48.824;11.422;2023-04-06T07:43:16;7.70;91.50
17053;DHT22;8643;48.824;11.422;2023-04-06T07:45:46;7.60;91.20
17053;DHT22;8643;48.824;11.422;2023-04-06T07:48:16;8.00;90.20
17053;DHT22;8643;48.824;11.422;2023-04-06T07:50:44;8.50;89.90
17053;DHT22;8643;48.824;11.422;2023-04-06T07:55:46;9.30;82.70
17053;DHT22;8643;48.824;11.422;2023-04-06T07:58:14;9.50;83.40
17053;DHT22;8643;48.824;11.422;2023-04-06T08:00:43;9.80;78.50
17053;DHT22;8643;48.824;11.422;2023-04-06T08:03:12;9.80;80.70
17053;DHT22;8643;48.824;11.422;2023-04-06T08:08:10;9.90;81.80
17053;DHT22;8643;48.824;11.422;2023-04-06T08:10:38;9.40;80.90
17053;DHT22;8643;48.824;11.422;2023-04-06T08:13:06;6.90;80.00
17053;DHT22;8643;48.824;11.422;2023-04-06T08:15:36;9.00;77.40
17053;DHT22;8643;48.824;11.422;2023-04-06T08:18:05;9.00;81.60
17053;DHT22;8643;48.824;11.422;2023-04-06T08:20:35;9.40;84.10
17053;DHT22;8643;48.824;11.422;2023-04-06T08:23:04;9.70;81.10
17053;DHT22;8643;48.824;11.422;2023-04-06T08:25:34;9.70;82.20
17053;DHT22;8643;48.824;11.422;2023-04-06T08:28:03;9.80;78.60
17053;DHT22;8643;48.824;11.422;2023-04-06T08:30:32;10.20;76.50
17053;DHT22;8643;48.824;11.422;2023-04-06T08:33:01;10.80;75.50
17053;DHT22;8643;48.824;11.422;2023-04-06T08:38:00;11.30;73.90
17053;DHT22;8643;48.824;11.422;2023-04-06T08:40:28;12.00;73.80
17053;DHT22;8643;48.824;11.422;2023-04-06T08:42:59;12.40;70.20
17053;DHT22;8643;48.824;11.422;2023-04-06T08:45:35;12.50;72.10
17053;DHT22;8643;48.824;11.422;2023-04-06T08:48:05;12.80;64.70
17053;DHT22;8643;48.824;11.422;2023-04-06T08:50:35;12.40;66.10
17053;DHT22;8643;48.824;11.422;2023-04-06T08:53:07;12.20;65.80
17053;DHT22;8643;48.824;11.422;2023-04-06T08:55:36;11.80;65.10
17053;DHT22;8643;48.824;11.422;2023-04-06T08:58:07;11.70;66.40
17053;DHT22;8643;48.824;11.422;2023-04-06T09:00:37;11.90;64.60
17053;DHT22;8643;48.824;11.422;2023-04-06T09:03:08;12.10;66.00
17053;DHT22;8643;48.824;11.422;2023-04-06T09:05:40;12.20;67.50
17053;DHT22;8643;48.824;11.422;2023-04-06T09:08:10;12.50;68.80
17053;DHT22;8643;48.824;11.422;2023-04-06T09:10:40;12.60;63.60
17053;DHT22;8643;48.824;11.422;2023-04-06T09:13:09;12.00;65.30
17053;DHT22;8643;48.824;11.422;2023-04-06T09:15:38;12.60;66.50
17053;DHT22;8643;48.824;11.422;2023-04-06T09:18:06;12.60;65.10
17053;DHT22;8643;48.824;11.422;2023-04-06T09:20:35;12.70;62.40
17053;DHT22;8643;48.824;11.422;2023-04-06T09:23:04;12.60;64.00
17053;DHT22;8643;48.824;11.422;2023-04-06T09:25:34;13.30;67.20
17053;DHT22;8643;48.824;11.422;2023-04-06T09:28:04;13.70;63.80
17053;DHT22;8643;48.824;11.422;2023-04-06T09:30:34;14.20;61.20
17053;DHT22;8643;48.824;11.422;2023-04-06T09:33:03;14.70;62.00
17053;DHT22;8643;48.824;11.422;2023-04-06T09:35:32;14.80;60.90
17053;DHT22;8643;48.824;11.422;2023-04-06T09:38:10;14.80;58.00
17053;DHT22;8643;48.824;11.422;2023-04-06T09:40:49;14.90;56.00
17053;DHT22;8643;48.824;11.422;2023-04-06T09:43:29;14.90;56.40
17053;DHT22;8643;48.824;11.422;2023-04-06T09:46:00;14.80;60.40
17053;DHT22;8643;48.824;11.422;2023-04-06T09:48:34;14.80;56.80
17053;DHT22;8643;48.824;11.422;2023-04-06T09:51:04;14.20;57.70
17053;DHT22;8643;48.824;11.422;2023-04-06T09:53:37;14.10;58.50
17053;DHT22;8643;48.824;11.422;2023-04-06T09:56:12;14.20;56.20
17053;DHT22;8643;48.824;11.422;2023-04-06T09:58:47;14.70;52.70
17053;DHT22;8643;48.824;11.422;2023-04-06T10:01:20;15.00;53.20
17053;DHT22;8643;48.824;11.422;2023-04-06T10:03:54;15.40;53.00
17053;DHT22;8643;48.824;11.422;2023-04-06T10:06:33;15.30;50.50
17053;DHT22;8643;48.824;11.422;2023-04-06T10:09:04;15.50;53.40
17053;DHT22;8643;48.824;11.422;2023-04-06T10:11:38;15.80;54.90
17053;DHT22;8643;48.824;11.422;2023-04-06T10:14:06;15.90;54.10
17053;DHT22;8643;48.824;11.422;2023-04-06T10:16:39;15.80;55.00
17053;DHT22;8643;48.824;11.422;2023-04-06T10:19:14;15.70;54.40
17053;DHT22;8643;48.824;11.422;2023-04-06T10:21:48;15.40;53.70
17053;DHT22;8643;48.824;11.422;2023-04-06T10:24:23;15.30;53.00
17053;DHT22;8643;48.824;11.422;2023-04-06T10:27:01;15.70;54.20
17053;DHT22;8643;48.824;11.422;2023-04-06T10:29:44;16.10;52.50
17053;DHT22;8643;48.824;11.422;2023-04-06T10:32:14;16.40;55.70
17053;DHT22;8643;48.824;11.422;2023-04-06T10:34:44;16.50;52.50
17053;DHT22;8643;48.824;11.422;2023-04-06T10:37:14;16.60;52.30
17053;DHT22;8643;48.824;11.422;2023-04-06T10:39:46;16.50;50.90
17053;DHT22;8643;48.824;11.422;2023-04-06T10:42:18;16.80;54.00
17053;DHT22;8643;48.824;11.422;2023-04-06T10:44:51;17.40;56.30
17053;DHT22;8643;48.824;11.422;2023-04-06T10:47:20;16.90;53.50
17053;DHT22;8643;48.824;11.422;2023-04-06T10:49:49;17.00;51.10
17053;DHT22;8643;48.824;11.422;2023-04-06T10:52:17;17.30;49.30
17053;DHT22;8643;48.824;11.422;2023-04-06T10:54:47;17.80;47.10
17053;DHT22;8643;48.824;11.422;2023-04-06T10:57:27;17.40;50.60
17053;DHT22;8643;48.824;11.422;2023-04-06T10:59:57;18.20;57.30
17053;DHT22;8643;48.824;11.422;2023-04-06T11:02:26;18.50;48.30
17053;DHT22;8643;48.824;11.422;2023-04-06T11:04:56;19.00;46.10
17053;DHT22;8643;48.824;11.422;2023-04-06T11:07:25;19.10;44.40
17053;DHT22;8643;48.824;11.422;2023-04-06T11:09:56;18.60;46.00
17053;DHT22;8643;48.824;11.422;2023-04-06T11:12:44;18.20;44.90
17053;DHT22;8643;48.824;11.422;2023-04-06T11:17:42;18.20;45.30
17053;DHT22;8643;48.824;11.422;2023-04-06T11:20:12;18.10;46.40
17053;DHT22;8643;48.824;11.422;2023-04-06T11:22:50;18.50;48.70
17053;DHT22;8643;48.824;11.422;2023-04-06T11:25:20;19.20;45.20
17053;DHT22;8643;48.824;11.422;2023-04-06T11:27:50;19.60;44.90
17053;DHT22;8643;48.824;11.422;2023-04-06T11:30:19;19.00;44.00
17053;DHT22;8643;48.824;11.422;2023-04-06T11:32:48;17.20;45.20
17053;DHT22;8643;48.824;11.422;2023-04-06T11:35:20;17.40;50.90
17053;DHT22;8643;48.824;11.422;2023-04-06T11:37:50;17.80;48.20
17053;DHT22;8643;48.824;11.422;2023-04-06T11:40:21;18.20;44.70
17053;DHT22;8643;48.824;11.422;2023-04-06T11:42:55;18.30;52.00
17053;DHT22;8643;48.824;11.422;2023-04-06T11:45:25;18.90;48.50
17053;DHT22;8643;48.824;11.422;2023-04-06T11:47:59;19.00;46.90
17053;DHT22;8643;48.824;11.422;2023-04-06T11:50:32;18.40;47.50
17053;DHT22;8643;48.824;11.422;2023-04-06T11:53:02;17.60;46.40
17053;DHT22;8643;48.824;11.422;2023-04-06T11:55:37;18.10;50.70
17053;DHT22;8643;48.824;11.422;2023-04-06T11:58:08;19.00;48.80
17053;DHT22;8643;48.824;11.422;2023-04-06T12:00:36;19.00;46.90
17053;DHT22;8643;48.824;11.422;2023-04-06T12:03:05;19.40;49.30
17053;DHT22;8643;48.824;11.422;2023-04-06T12:05:34;19.40;46.80
17053;DHT22;8643;48.824;11.422;2023-04-06T12:08:02;20.00;44.30
17053;DHT22;8643;48.824;11.422;2023-04-06T12:10:31;20.20;42.70
17053;DHT22;8643;48.824;11.422;2023-04-06T12:15:30;18.70;43.30
17053;DHT22;8643;48.824;11.422;2023-04-06T12:17:59;18.60;49.30
17053;DHT22;8643;48.824;11.422;2023-04-06T12:20:27;18.70;48.50
17053;DHT22;8643;48.824;11.422;2023-04-06T12:22:56;19.50;47.00
17053;DHT22;8643;48.824;11.422;2023-04-06T12:25:25;20.20;43.10
17053;DHT22;8643;48.824;11.422;2023-04-06T12:27:54;19.90;43.50
17053;DHT22;8643;48.824;11.422;2023-04-06T12:30:22;18.20;47.60
17053;DHT22;8643;48.824;11.422;2023-04-06T12:32:53;18.70;47.30
17053;DHT22;8643;48.824;11.422;2023-04-06T12:37:51;17.60;47.50
17053;DHT22;8643;48.824;11.422;2023-04-06T12:40:20;17.60;49.20
17053;DHT22;8643;48.824;11.422;2023-04-06T12:42:49;18.60;47.70
17053;DHT22;8643;48.824;11.422;2023-04-06T12:45:17;18.70;47.00
17053;DHT22;8643;48.824;11.422;2023-04-06T12:47:45;18.70;44.60
17053;DHT22;8643;48.824;11.422;2023-04-06T12:50:16;18.10;46.90
17053;DHT22;8643;48.824;11.422;2023-04-06T12:52:45;18.10;45.00
17053;DHT22;8643;48.824;11.422;2023-04-06T12:55:13;17.80;48.70
17053;DHT22;8643;48.824;11.422;2023-04-06T12:57:42;18.10;47.40
17053;DHT22;8643;48.824;11.422;2023-04-06T13:00:11;18.80;46.60
17053;DHT22;8643;48.824;11.422;2023-04-06T13:02:41;19.10;45.60
17053;DHT22;8643;48.824;11.422;2023-04-06T13:05:15;18.90;46.60
17053;DHT22;8643;48.824;11.422;2023-04-06T13:07:45;19.00;45.40
17053;DHT22;8643;48.824;11.422;2023-04-06T13:10:14;18.70;45.20
17053;DHT22;8643;48.824;11.422;2023-04-06T13:15:11;19.40;45.10
17053;DHT22;8643;48.824;11.422;2023-04-06T13:17:40;19.40;45.30
17053;DHT22;8643;48.824;11.422;2023-04-06T13:20:09;19.20;43.80
17053;DHT22;8643;48.824;11.422;2023-04-06T13:22:39;19.70;47.00
17053;DHT22;8643;48.824;11.422;2023-04-06T13:27:36;19.00;46.20
17053;DHT22;8643;48.824;11.422;2023-04-06T13:30:06;19.20;43.50
17053;DHT22;8643;48.824;11.422;2023-04-06T13:32:36;18.20;44.20
17053;DHT22;8643;48.824;11.422;2023-04-06T13:35:05;17.50;46.20
17053;DHT22;8643;48.824;11.422;2023-04-06T13:37:35;16.40;47.40
17053;DHT22;8643;48.824;11.422;2023-04-06T13:40:06;16.50;49.10
17053;DHT22;8643;48.824;11.422;2023-04-06T13:42:35;17.10;46.30
17053;DHT22;8643;48.824;11.422;2023-04-06T13:45:05;17.70;46.30
17053;DHT22;8643;48.824;11.422;2023-04-06T13:47:34;18.00;44.50
17053;DHT22;8643;48.824;11.422;2023-04-06T13:50:04;18.40;44.70
17053;DHT22;8643;48.824;11.422;2023-04-06T13:52:33;19.20;46.50
17053;DHT22;8643;48.824;11.422;2023-04-06T13:55:05;20.10;43.00
17053;DHT22;8643;48.824;11.422;2023-04-06T13:57:34;20.50;42.20
17053;DHT22;8643;48.824;11.422;2023-04-06T14:00:04;20.00;41.10
17053;DHT22;8643;48.824;11.422;2023-04-06T14:02:34;18.50;43.50
17053;DHT22;8643;48.824;11.422;2023-04-06T14:05:03;17.50;42.90
17053;DHT22;8643;48.824;11.422;2023-04-06T14:07:32;16.10;45.20
17053;DHT22;8643;48.824;11.422;2023-04-06T14:10:00;16.00;44.90
17053;DHT22;8643;48.824;11.422;2023-04-06T14:12:31;16.30;45.50
17053;DHT22;8643;48.824;11.422;2023-04-06T14:15:00;16.90;43.80
17053;DHT22;8643;48.824;11.422;2023-04-06T14:17:31;18.00;45.10
17053;DHT22;8643;48.824;11.422;2023-04-06T14:19:59;18.90;42.00
17053;DHT22;8643;48.824;11.422;2023-04-06T14:22:29;19.40;41.30
17053;DHT22;8643;48.824;11.422;2023-04-06T14:24:58;19.40;41.20
17053;DHT22;8643;48.824;11.422;2023-04-06T14:27:26;19.30;42.00
17053;DHT22;8643;48.824;11.422;2023-04-06T14:29:57;19.60;43.10
17053;DHT22;8643;48.824;11.422;2023-04-06T14:32:26;19.60;41.40
17053;DHT22;8643;48.824;11.422;2023-04-06T14:34:55;19.60;41.60
17053;DHT22;8643;48.824;11.422;2023-04-06T14:37:23;19.40;39.80
17053;DHT22;8643;48.824;11.422;2023-04-06T14:39:52;18.80;41.20
17053;DHT22;8643;48.824;11.422;2023-04-06T14:42:20;18.20;42.30
17053;DHT22;8643;48.824;11.422;2023-04-06T14:44:48;18.20;43.10
17053;DHT22;8643;48.824;11.422;2023-04-06T14:47:19;18.00;42.10
17053;DHT22;8643;48.824;11.422;2023-04-06T14:49:50;18.50;40.30
17053;DHT22;8643;48.824;11.422;2023-04-06T14:52:20;19.10;40.80
17053;DHT22;8643;48.824;11.422;2023-04-06T14:54:49;19.40;40.50
17053;DHT22;8643;48.824;11.422;2023-04-06T14:57:17;18.90;41.60
17053;DHT22;8643;48.824;11.422;2023-04-06T14:59:45;19.30;41.40
17053;DHT22;8643;48.824;11.422;2023-04-06T15:02:16;18.60;41.50
17053;DHT22;8643;48.824;11.422;2023-04-06T15:04:47;18.70;40.90
17053;DHT22;8643;48.824;11.422;2023-04-06T15:07:15;18.70;41.50
17053;DHT22;8643;48.824;11.422;2023-04-06T15:09:45;18.60;41.00
17053;DHT22;8643;48.824;11.422;2023-04-06T15:12:13;18.70;40.70
17053;DHT22;8643;48.824;11.422;2023-04-06T15:14:41;18.80;41.00
17053;DHT22;8643;48.824;11.422;2023-04-06T15:17:10;15.70;39.80
17053;DHT22;8643;48.824;11.422;2023-04-06T15:19:39;18.60;41.30
17053;DHT22;8643;48.824;11.422;2023-04-06T15:22:11;18.00;41.20
17053;DHT22;8643;48.824;11.422;2023-04-06T15:24:40;17.40;41.70
17053;DHT22;8643;48.824;11.422;2023-04-06T15:27:09;16.40;41.90
17053;DHT22;8643;48.824;11.422;2023-04-06T15:29:37;15.60;45.00
17053;DHT22;8643;48.824;11.422;2023-04-06T15:32:06;15.30;44.80
17053;DHT22;8643;48.824;11.422;2023-04-06T15:37:03;14.20;45.60
17053;DHT22;8643;48.824;11.422;2023-04-06T15:39:33;14.40;45.90
17053;DHT22;8643;48.824;11.422;2023-04-06T15:42:03;14.90;46.80
17053;DHT22;8643;48.824;11.422;2023-04-06T15:44:32;15.60;44.60
17053;DHT22;8643;48.824;11.422;2023-04-06T15:47:01;16.20;43.10
17053;DHT22;8643;48.824;11.422;2023-04-06T15:51:59;16.30;43.40
17053;DHT22;8643;48.824;11.422;2023-04-06T15:54:27;16.20;44.00
17053;DHT22;8643;48.824;11.422;2023-04-06T15:56:57;16.10;43.70
17053;DHT22;8643;48.824;11.422;2023-04-06T15:59:25;15.90;44.20
17053;DHT22;8643;48.824;11.422;2023-04-06T16:01:53;16.00;45.20
17053;DHT22;8643;48.824;11.422;2023-04-06T16:04:22;16.00;44.20
17053;DHT22;8643;48.824;11.422;2023-04-06T16:06:50;15.90;43.90
17053;DHT22;8643;48.824;11.422;2023-04-06T16:09:19;15.80;43.90
17053;DHT22;8643;48.824;11.422;2023-04-06T16:11:47;16.10;43.90
17053;DHT22;8643;48.824;11.422;2023-04-06T16:14:18;16.10;43.60
17053;DHT22;8643;48.824;11.422;2023-04-06T16:16:46;16.20;44.70
17053;DHT22;8643;48.824;11.422;2023-04-06T16:19:16;15.90;43.70
17053;DHT22;8643;48.824;11.422;2023-04-06T16:21:44;15.50;44.90
17053;DHT22;8643;48.824;11.422;2023-04-06T16:24:13;15.30;44.00
17053;DHT22;8643;48.824;11.422;2023-04-06T16:29:10;15.00;44.00
17053;DHT22;8643;48.824;11.422;2023-04-06T16:31:40;14.70;45.10
17053;DHT22;8643;48.824;11.422;2023-04-06T16:34:13;14.30;44.70
17053;DHT22;8643;48.824;11.422;2023-04-06T16:36:41;13.90;45.70
17053;DHT22;8643;48.824;11.422;2023-04-06T16:39:10;13.50;46.20
17053;DHT22;8643;48.824;11.422;2023-04-06T16:41:39;13.30;47.80
17053;DHT22;8643;48.824;11.422;2023-04-06T16:46:37;12.80;47.40
17053;DHT22;8643;48.824;11.422;2023-04-06T16:49:08;12.40;49.00
17053;DHT22;8643;48.824;11.422;2023-04-06T16:51:39;12.20;48.40
17053;DHT22;8643;48.824;11.422;2023-04-06T16:56:37;12.00;49.50
17053;DHT22;8643;48.824;11.422;2023-04-06T16:59:07;11.80;49.20
17053;DHT22;8643;48.824;11.422;2023-04-06T17:01:36;11.60;49.70